createdAt,value
2019-05-17T00:01:42.619Z,99705.39
2019-05-17T00:04:16.486Z,99702.16
2019-05-17T00:06:48.558Z,99709.02
2019-05-17T00:09:20.809Z,99701.84
2019-05-17T00:11:52.968Z,99701.35
2019-05-17T00:14:27.107Z,99693.42
2019-05-17T00:16:59.060Z,99695.23
2019-05-17T00:19:32.119Z,99700.52
2019-05-17T00:22:07.391Z,99697.48
2019-05-17T00:24:39.060Z,99697.98
2019-05-17T00:27:10.167Z,99698.19
2019-05-17T00:29:41.928Z,99698.63
2019-05-17T00:32:14.229Z,99699.45
2019-05-17T00:34:46.979Z,99698.27
2019-05-17T00:37:17.706Z,99695.09
2019-05-17T00:39:49.529Z,99695.20
2019-05-17T00:42:21.533Z,99692.56
2019-05-17T00:44:52.509Z,99697.34
2019-05-17T00:47:26.411Z,99693.62
2019-05-17T00:49:58.198Z,99692.30
2019-05-17T00:52:30.449Z,99686.21
2019-05-17T00:55:02.483Z,99687.53
2019-05-17T00:57:33.548Z,99680.93
2019-05-17T01:00:05.680Z,99676.21
2019-05-17T01:02:37.624Z,99668.88
2019-05-17T01:05:10.078Z,99668.28
2019-05-17T01:07:42.120Z,99671.42
2019-05-17T01:10:13.647Z,99675.28
2019-05-17T01:12:45.416Z,99672.38
2019-05-17T01:15:19.288Z,99670.66
2019-05-17T01:17:51.558Z,99674.16
2019-05-17T01:20:22.687Z,99673.20
2019-05-17T01:22:56.534Z,99677.38
2019-05-17T01:25:28.373Z,99672.09
2019-05-17T01:28:00.399Z,99675.69
2019-05-17T01:30:32.739Z,99672.22
2019-05-17T01:33:06.580Z,99670.91
2019-05-17T01:35:38.598Z,99672.69
2019-05-17T01:38:12.268Z,99667.77
2019-05-17T01:40:43.468Z,99664.76
2019-05-17T01:43:16.669Z,99665.92
2019-05-17T01:45:48.788Z,99660.73
2019-05-17T01:48:21.628Z,99665.09
2019-05-17T01:50:56.790Z,99663.02
2019-05-17T01:53:37.020Z,99660.02
2019-05-17T01:56:11.700Z,99665.03
2019-05-17T01:58:43.980Z,99665.03
2019-05-17T02:01:16.971Z,99665.86
2019-05-17T02:03:49.249Z,99669.36
2019-05-17T02:06:20.347Z,99665.14
2019-05-17T02:08:52.379Z,99659.53
2019-05-17T02:11:26.756Z,99658.05
2019-05-17T02:13:58.369Z,99656.73
2019-05-17T02:16:33.829Z,99658.91
2019-05-17T02:19:06.886Z,99655.05
2019-05-17T02:21:42.598Z,99649.30
2019-05-17T02:24:16.967Z,99654.68
2019-05-17T02:26:50.841Z,99648.28
2019-05-17T02:29:27.779Z,99649.70
2019-05-17T02:32:06.851Z,99648.52
2019-05-17T02:34:42.966Z,99650.30
2019-05-17T02:37:23.533Z,99651.34
2019-05-17T02:40:04.577Z,99660.23
2019-05-17T02:42:42.997Z,99658.05
2019-05-17T02:45:15.899Z,99656.17
2019-05-17T02:47:54.080Z,99659.73
2019-05-17T02:50:28.580Z,99655.21
2019-05-17T02:53:06.617Z,99654.61
2019-05-17T02:55:39.584Z,99658.02
2019-05-17T02:58:12.872Z,99661.02
2019-05-17T03:00:45.745Z,99662.70
2019-05-17T03:03:23.657Z,99667.78
2019-05-17T03:05:57.040Z,99666.46
2019-05-17T03:08:34.210Z,99670.19
2019-05-17T03:11:13.959Z,99666.23
2019-05-17T03:13:52.559Z,99662.07
2019-05-17T03:16:24.974Z,99660.75
2019-05-17T03:18:57.931Z,99656.42
2019-05-17T03:21:33.749Z,99650.55
2019-05-17T03:24:08.471Z,99646.75
2019-05-17T03:26:42.960Z,99638.52
2019-05-17T03:29:14.771Z,99634.42
2019-05-17T03:31:57.582Z,99636.04
2019-05-17T03:34:26.375Z,99639.66
2019-05-17T03:36:57.052Z,99637.54
2019-05-17T03:39:33.278Z,99629.77
2019-05-17T03:42:05.360Z,99635.83
2019-05-17T03:44:39.070Z,99634.06
2019-05-17T03:47:13.129Z,99642.80
2019-05-17T03:49:49.098Z,99636.84
2019-05-17T03:52:22.387Z,99638.06
2019-05-17T03:54:56.736Z,99639.99
2019-05-17T03:57:29.219Z,99642.42
2019-05-17T04:00:03.804Z,99645.80
2019-05-17T04:02:43.793Z,99646.41
2019-05-17T04:05:14.311Z,99649.20
2019-05-17T04:07:46.908Z,99651.74
2019-05-17T04:10:22.831Z,99652.10
2019-05-17T04:13:12.707Z,99648.63
2019-05-17T04:15:52.717Z,99652.20
2019-05-17T04:18:26.100Z,99649.31
2019-05-17T04:20:58.552Z,99648.48
2019-05-17T04:23:34.014Z,99655.92
2019-05-17T04:26:06.149Z,99656.63
2019-05-17T04:28:39.011Z,99652.15
2019-05-17T04:31:13.343Z,99658.29
2019-05-17T04:33:47.348Z,99654.58
2019-05-17T04:36:22.459Z,99649.45
2019-05-17T04:38:54.974Z,99650.53
2019-05-17T04:41:41.551Z,99655.24
2019-05-17T04:44:05.688Z,99654.75
2019-05-17T04:46:39.218Z,99652.46
2019-05-17T04:49:14.989Z,99654.80
2019-05-17T04:51:47.730Z,99662.02
2019-05-17T04:54:24.418Z,99660.38
2019-05-17T04:56:56.642Z,99657.38
2019-05-17T04:59:33.358Z,99654.78
2019-05-17T05:02:12.923Z,99660.11
2019-05-17T05:04:47.527Z,99657.47
2019-05-17T05:07:22.691Z,99659.08
2019-05-17T05:09:58.490Z,99657.30
2019-05-17T05:12:33.636Z,99660.59
2019-05-17T05:15:08.400Z,99657.58
2019-05-17T05:17:42.585Z,99660.98
2019-05-17T05:20:15.592Z,99658.44
2019-05-17T05:22:48.375Z,99662.09
2019-05-17T05:25:21.653Z,99663.44
2019-05-17T05:31:13.355Z,99663.33
2019-05-17T05:33:46.365Z,99667.61
2019-05-17T05:36:18.875Z,99677.61
2019-05-17T05:38:51.645Z,99678.83
2019-05-17T05:41:26.299Z,99680.15
2019-05-17T05:43:58.827Z,99681.72
2019-05-17T05:46:31.797Z,99679.21
2019-05-17T05:49:05.274Z,99682.44
2019-05-17T05:51:38.160Z,99679.09
2019-05-17T05:54:12.317Z,99688.22
2019-05-17T05:56:44.910Z,99683.92
2019-05-17T05:59:17.541Z,99682.36
2019-05-17T06:01:52.426Z,99676.73
2019-05-17T06:04:24.438Z,99684.81
2019-05-17T06:06:57.230Z,99677.38
2019-05-17T06:09:31.752Z,99685.22
2019-05-17T06:12:03.976Z,99681.59
2019-05-17T06:14:36.585Z,99681.97
2019-05-17T06:17:09.105Z,99694.47
2019-05-17T06:19:42.862Z,99691.34
2019-05-17T06:22:15.854Z,99698.81
2019-05-17T06:24:48.495Z,99694.81
2019-05-17T06:27:21.584Z,99697.11
2019-05-17T06:29:54.575Z,99692.04
2019-05-17T06:32:27.377Z,99706.38
2019-05-17T06:35:01.886Z,99706.50
2019-05-17T06:37:34.157Z,99709.26
2019-05-17T06:40:06.840Z,99708.41
2019-05-17T06:42:44.126Z,99716.69
2019-05-17T06:45:14.516Z,99715.01
2019-05-17T06:47:47.255Z,99714.79
2019-05-17T06:50:23.466Z,99718.39
2019-05-17T06:52:55.303Z,99724.08
2019-05-17T06:55:27.909Z,99719.04
2019-05-17T06:58:01.720Z,99719.90
2019-05-17T07:00:34.445Z,99715.33
2019-05-17T07:03:09.408Z,99720.39
2019-05-17T07:05:43.346Z,99731.10
2019-05-17T07:08:16.035Z,99729.91
2019-05-17T07:10:50.239Z,99734.86
2019-05-17T07:13:22.917Z,99738.88
2019-05-17T07:15:55.685Z,99735.51
2019-05-17T07:18:30.048Z,99736.94
2019-05-17T07:21:03.440Z,99734.16
2019-05-17T07:23:36.195Z,99739.47
2019-05-17T07:26:11.821Z,99742.26
2019-05-17T07:28:43.436Z,99747.66
2019-05-17T07:31:16.296Z,99748.11
2019-05-17T07:33:50.458Z,99751.23
2019-05-17T07:36:23.196Z,99751.83
2019-05-17T07:38:55.863Z,99748.46
2019-05-17T07:41:29.834Z,99753.64
2019-05-17T07:44:03.550Z,99748.83
2019-05-17T07:49:06.571Z,99743.56
2019-05-17T07:51:39.663Z,99745.74
2019-05-17T07:54:13.906Z,99739.73
2019-05-17T07:56:46.335Z,99733.80
2019-05-17T07:59:19.998Z,99738.39
2019-05-17T08:01:52.745Z,99735.73
2019-05-17T08:04:31.735Z,99733.08
2019-05-17T08:07:04.676Z,99729.70
2019-05-17T08:09:37.216Z,99736.48
2019-05-17T08:12:11.026Z,99730.20
2019-05-17T08:14:43.686Z,99734.03
2019-05-17T08:17:16.285Z,99736.10
2019-05-17T08:19:49.779Z,99735.36
2019-05-17T08:22:22.586Z,99734.27
2019-05-17T08:24:55.015Z,99732.84
2019-05-17T08:27:29.658Z,99731.83
2019-05-17T08:30:01.706Z,99733.98
2019-05-17T08:32:34.495Z,99733.35
2019-05-17T08:35:07.298Z,99731.52
2019-05-17T08:37:42.471Z,99731.05
2019-05-17T08:40:15.484Z,99727.68
2019-05-17T08:42:49.882Z,99735.42
2019-05-17T08:45:22.466Z,99737.14
2019-05-17T08:47:54.841Z,99736.91
2019-05-17T08:50:29.365Z,99737.55
2019-05-17T08:53:02.168Z,99742.37
2019-05-17T08:55:34.706Z,99742.73
2019-05-17T08:58:09.997Z,99743.35
2019-05-17T09:00:41.596Z,99750.92
2019-05-17T09:03:14.286Z,99747.41
2019-05-17T09:05:46.877Z,99740.94
2019-05-17T09:08:20.580Z,99742.86
2019-05-17T09:10:53.536Z,99752.97
2019-05-17T09:13:26.142Z,99753.20
2019-05-17T09:16:00.269Z,99755.41
2019-05-17T09:18:33.335Z,99754.05
2019-05-17T09:21:06.177Z,99760.13
2019-05-17T09:23:39.644Z,99753.64
2019-05-17T09:26:12.549Z,99744.97
2019-05-17T09:28:45.530Z,99743.78
2019-05-17T09:31:21.676Z,99743.09
2019-05-17T09:33:54.556Z,99746.56
2019-05-17T09:36:30.104Z,99740.97
2019-05-17T09:39:01.853Z,99746.34
2019-05-17T09:41:36.475Z,99737.68
2019-05-17T09:44:15.674Z,99731.03
2019-05-17T09:46:43.505Z,99735.67
2019-05-17T09:49:15.946Z,99731.18
2019-05-17T09:51:49.684Z,99734.23
2019-05-17T09:54:37.240Z,99733.39
2019-05-17T09:56:57.596Z,99722.66
2019-05-17T09:59:30.335Z,99713.92
2019-05-17T10:02:02.825Z,99716.51
2019-05-17T10:04:35.463Z,99710.09
2019-05-17T10:07:10.201Z,99705.77
2019-05-17T10:09:42.176Z,99708.12
2019-05-17T10:12:14.774Z,99715.47
2019-05-17T10:14:55.195Z,99713.24
2019-05-17T10:17:29.477Z,99717.30
2019-05-17T10:20:02.316Z,99714.54
2019-05-17T10:22:34.887Z,99714.73
2019-05-17T10:25:10.420Z,99714.54
2019-05-17T10:27:43.047Z,99710.58
2019-05-17T10:30:15.547Z,99714.17
2019-05-17T10:32:50.607Z,99709.50
2019-05-17T10:35:22.418Z,99707.20
2019-05-17T10:37:55.697Z,99697.23
2019-05-17T10:40:29.881Z,99698.75
2019-05-17T10:43:03.780Z,99700.45
2019-05-17T10:45:40.095Z,99710.78
2019-05-17T10:48:13.816Z,99701.88
2019-05-17T10:55:54.005Z,99709.94
2019-05-17T10:58:26.606Z,99709.94
2019-05-17T11:01:00.809Z,99707.30
2019-05-17T11:03:34.666Z,99700.02
2019-05-17T11:06:07.518Z,99709.17
2019-05-17T11:08:39.926Z,99710.12
2019-05-17T11:11:12.575Z,99711.37
2019-05-17T11:13:45.125Z,99712.46
2019-05-17T11:16:17.715Z,99714.38
2019-05-17T11:18:51.005Z,99722.27
2019-05-17T11:21:23.737Z,99716.22
2019-05-17T11:23:56.213Z,99707.23
2019-05-17T11:26:29.015Z,99719.23
2019-05-17T11:29:27.771Z,99725.92
2019-05-17T11:32:37.297Z,99726.53
2019-05-17T11:35:45.395Z,99739.11
2019-05-17T11:38:21.555Z,99732.54
2019-05-17T11:40:54.300Z,99738.30
2019-05-17T11:43:26.776Z,99746.91
2019-05-17T11:45:59.370Z,99758.86
2019-05-17T11:48:31.845Z,99772.98
2019-05-17T11:51:04.525Z,99772.98
2019-05-17T11:53:37.035Z,99773.20
2019-05-17T11:56:09.616Z,99773.36
2019-05-17T11:58:42.095Z,99784.25
2019-05-17T12:01:14.957Z,99783.86
2019-05-17T12:03:47.556Z,99786.77
2019-05-17T12:06:20.406Z,99786.52
2019-05-17T12:08:53.166Z,99795.71
2019-05-17T12:11:25.765Z,99791.50
2019-05-17T12:13:58.716Z,99791.38
2019-05-17T12:16:31.256Z,99784.55
2019-05-17T12:19:03.860Z,99782.32
2019-05-17T12:21:36.476Z,99782.85
2019-05-17T12:24:09.641Z,99777.33
2019-05-17T12:26:42.296Z,99774.87
2019-05-17T12:29:15.185Z,99779.16
2019-05-17T12:31:47.619Z,99776.76
2019-05-17T12:34:21.455Z,99777.16
2019-05-17T12:36:54.056Z,99782.09
2019-05-17T12:39:26.479Z,99778.17
2019-05-17T12:41:59.245Z,99773.72
2019-05-17T12:44:31.877Z,99769.02
2019-05-17T12:47:04.826Z,99767.25
2019-05-17T12:49:37.528Z,99762.89
2019-05-17T12:52:10.397Z,99758.75
2019-05-17T12:54:43.136Z,99755.44
2019-05-17T12:57:16.886Z,99753.68
2019-05-17T12:59:49.575Z,99761.41
2019-05-17T13:02:22.256Z,99765.09
2019-05-17T13:04:55.117Z,99761.98
2019-05-17T13:07:28.045Z,99767.91
2019-05-17T13:10:00.656Z,99764.77
2019-05-17T13:12:33.454Z,99769.88
2019-05-17T13:15:07.329Z,99771.00
2019-05-17T13:17:39.848Z,99763.37
2019-05-17T13:20:13.216Z,99755.33
2019-05-17T13:22:46.289Z,99748.81
2019-05-17T13:25:18.962Z,99755.80
2019-05-17T13:27:53.147Z,99765.35
2019-05-17T13:30:25.925Z,99760.41
2019-05-17T13:32:58.947Z,99768.30
2019-05-17T13:35:31.602Z,99768.70
2019-05-17T13:38:04.297Z,99774.47
2019-05-17T13:40:39.641Z,99769.28
2019-05-17T13:43:11.272Z,99772.41
2019-05-17T13:45:44.717Z,99771.42
2019-05-17T13:48:17.796Z,99765.31
2019-05-17T13:50:52.909Z,99768.69
2019-05-17T13:53:25.943Z,99768.81
2019-05-17T13:55:59.487Z,99763.15
2019-05-17T13:58:31.984Z,99763.15
2019-05-17T14:01:04.656Z,99795.49
2019-05-17T14:03:37.312Z,99783.37
2019-05-17T14:06:09.866Z,99783.37
2019-05-17T14:08:42.592Z,99785.34
2019-05-17T14:11:15.158Z,99781.84
2019-05-17T14:13:47.658Z,99785.41
2019-05-17T14:16:20.359Z,99790.83
2019-05-17T14:18:52.819Z,99783.23
2019-05-17T14:21:25.455Z,99775.36
2019-05-17T14:23:58.565Z,99775.36
2019-05-17T14:26:32.047Z,99784.56
2019-05-17T14:29:04.576Z,99794.97
2019-05-17T14:31:37.268Z,99795.97
2019-05-17T14:34:10.075Z,99793.16
2019-05-17T14:36:42.964Z,99790.66
2019-05-17T14:39:17.097Z,99795.56
2019-05-17T14:41:49.607Z,99797.61
2019-05-17T14:44:22.606Z,99793.28
2019-05-17T14:46:55.137Z,99795.50
2019-05-17T14:49:27.756Z,99794.48
2019-05-17T14:52:00.317Z,99786.61
2019-05-17T14:54:32.796Z,99778.16
2019-05-17T14:57:05.429Z,99778.16
2019-05-17T14:59:37.966Z,99780.95
2019-05-17T15:02:10.508Z,99780.95
2019-05-17T15:04:43.121Z,99779.17
2019-05-17T15:07:15.605Z,99779.17
2019-05-17T15:09:48.021Z,99771.80
2019-05-17T15:12:28.528Z,99775.64
2019-05-17T15:14:55.126Z,99770.94
2019-05-17T15:17:27.795Z,99775.39
2019-05-17T15:20:00.455Z,99775.39
2019-05-17T15:22:34.842Z,99774.53
2019-05-17T15:25:07.560Z,99778.09
2019-05-17T15:27:40.177Z,99772.47
2019-05-17T15:30:12.949Z,99768.08
2019-05-17T15:32:45.564Z,99765.25
2019-05-17T15:35:18.899Z,99765.25
2019-05-17T15:37:53.096Z,99770.37
2019-05-17T15:40:25.881Z,99765.30
2019-05-17T15:42:58.366Z,99774.68
2019-05-17T15:45:31.603Z,99768.91
2019-05-17T15:48:04.226Z,99758.67
2019-05-17T15:50:36.847Z,99752.33
2019-05-17T15:53:10.352Z,99751.23
2019-05-17T15:55:43.745Z,99755.12
2019-05-17T15:58:16.346Z,99756.84
2019-05-17T16:00:49.485Z,99760.03
2019-05-17T16:03:21.955Z,99757.75
2019-05-17T16:05:56.277Z,99758.89
2019-05-17T16:08:29.814Z,99756.08
2019-05-17T16:11:04.545Z,99748.59
2019-05-17T16:13:37.035Z,99748.59
2019-05-17T16:16:11.036Z,99753.09
2019-05-17T16:18:45.147Z,99751.91
2019-05-17T16:21:18.275Z,99756.20
2019-05-17T16:23:52.380Z,99750.98
2019-05-17T16:26:24.944Z,99747.19
2019-05-17T16:28:59.003Z,99747.19
2019-05-17T16:31:32.943Z,99746.99
2019-05-17T16:34:05.606Z,99747.56
2019-05-17T16:36:38.056Z,99746.03
2019-05-17T16:39:10.588Z,99749.44
2019-05-17T16:41:43.066Z,99749.44
2019-05-17T16:44:15.638Z,99742.64
2019-05-17T16:46:49.625Z,99739.30
2019-05-17T16:49:22.378Z,99730.29
2019-05-17T16:51:55.211Z,99726.37
2019-05-17T16:54:28.123Z,99729.77
2019-05-17T16:57:00.661Z,99741.52
2019-05-17T16:59:33.379Z,99736.26
2019-05-17T17:02:05.979Z,99740.58
2019-05-17T17:04:38.689Z,99736.17
2019-05-17T17:07:11.106Z,99751.98
2019-05-17T17:09:44.170Z,99745.83
2019-05-17T17:12:16.651Z,99742.03
2019-05-17T17:14:50.255Z,99742.03
2019-05-17T17:17:22.768Z,99743.97
2019-05-17T17:19:55.414Z,99752.20
2019-05-17T17:22:27.966Z,99747.36
2019-05-17T17:25:00.620Z,99747.36
2019-05-17T17:27:33.036Z,99750.17
2019-05-17T17:30:05.985Z,99750.17
2019-05-17T17:32:39.585Z,99744.77
2019-05-17T17:35:13.255Z,99748.26
2019-05-17T17:37:45.977Z,99752.17
2019-05-17T17:40:22.611Z,99750.20
2019-05-17T17:42:55.086Z,99752.27
2019-05-17T17:45:27.807Z,99750.81
2019-05-17T17:48:00.365Z,99748.84
2019-05-17T17:50:32.969Z,99746.75
2019-05-17T17:53:06.676Z,99747.56
2019-05-17T17:55:39.849Z,99753.48
2019-05-17T17:58:12.246Z,99751.18
2019-05-17T18:00:44.937Z,99743.43
2019-05-17T18:03:18.364Z,99743.28
2019-05-17T18:05:51.045Z,99750.37
2019-05-17T18:08:23.756Z,99748.97
2019-05-17T18:10:56.366Z,99750.48
2019-05-17T18:13:29.146Z,99757.84
2019-05-17T18:16:01.806Z,99767.63
2019-05-17T18:18:34.355Z,99764.52
2019-05-17T18:21:06.934Z,99770.23
2019-05-17T18:23:39.435Z,99773.38
2019-05-17T18:26:12.577Z,99773.91
2019-05-17T18:28:45.040Z,99785.45
2019-05-17T18:31:17.600Z,99785.00
2019-05-17T18:33:50.276Z,99791.02
2019-05-17T18:36:22.925Z,99800.20
2019-05-17T18:38:55.958Z,99797.81
2019-05-17T18:41:28.507Z,99797.10
2019-05-17T18:44:00.948Z,99804.23
2019-05-17T18:46:33.614Z,99801.83
2019-05-17T18:49:06.085Z,99805.93
2019-05-17T18:51:38.501Z,99802.05
2019-05-17T18:54:14.266Z,99807.34
2019-05-17T18:56:46.806Z,99810.67
2019-05-17T18:59:19.196Z,99817.78
2019-05-17T19:01:51.729Z,99814.64
2019-05-17T19:04:24.299Z,99815.02
2019-05-17T19:06:56.872Z,99820.67
2019-05-17T19:09:29.667Z,99817.28
2019-05-17T19:12:02.276Z,99825.61
2019-05-17T19:14:42.478Z,99827.83
2019-05-17T19:17:09.986Z,99828.77
2019-05-17T19:19:42.506Z,99823.85
2019-05-17T19:22:15.286Z,99824.23
2019-05-17T19:24:48.675Z,99820.92
2019-05-17T19:27:22.986Z,99818.50
2019-05-17T19:29:55.888Z,99818.16
2019-05-17T19:32:28.626Z,99817.41
2019-05-17T19:35:01.066Z,99814.06
2019-05-17T19:37:33.597Z,99818.64
2019-05-17T19:40:07.036Z,99816.59
2019-05-17T19:42:40.906Z,99816.47
2019-05-17T19:45:15.358Z,99812.50
2019-05-17T19:47:47.969Z,99815.67
2019-05-17T19:50:20.806Z,99802.63
2019-05-17T19:52:54.528Z,99813.48
2019-05-17T19:55:27.096Z,99802.53
2019-05-17T19:57:59.976Z,99806.62
2019-05-17T20:00:43.958Z,99817.85
2019-05-17T20:03:25.356Z,99804.59
2019-05-17T20:06:09.634Z,99808.06
2019-05-17T20:08:51.580Z,99814.59
2019-05-17T20:11:36.682Z,99817.35
2019-05-17T20:14:21.596Z,99815.89
2019-05-17T20:17:04.769Z,99803.81
2019-05-17T20:19:45.506Z,99818.39
2019-05-17T20:22:30.636Z,99811.03
2019-05-17T20:25:17.316Z,99805.92
2019-05-17T20:28:01.026Z,99807.27
2019-05-17T20:30:44.386Z,99809.28
2019-05-17T20:33:27.289Z,99802.66
2019-05-17T20:36:08.345Z,99803.21
2019-05-17T20:38:51.430Z,99801.00
2019-05-17T20:41:31.974Z,99807.38
2019-05-17T20:44:11.309Z,99809.27
2019-05-17T20:46:50.233Z,99815.79
2019-05-17T20:49:30.856Z,99820.63
2019-05-17T20:52:04.566Z,99815.54
2019-05-17T20:54:37.125Z,99822.23
2019-05-17T20:57:11.395Z,99815.21
2019-05-17T20:59:45.676Z,99818.53
2019-05-17T21:02:18.215Z,99815.09
2019-05-17T21:04:50.979Z,99818.66
2019-05-17T21:07:23.500Z,99826.30
2019-05-17T21:09:56.210Z,99820.34
2019-05-17T21:12:28.646Z,99830.52
2019-05-17T21:15:01.176Z,99825.31
2019-05-17T21:17:33.807Z,99823.73
2019-05-17T21:20:06.586Z,99831.13
2019-05-17T21:22:39.557Z,99832.84
2019-05-17T21:25:12.880Z,99828.48
2019-05-17T21:27:45.329Z,99828.09
2019-05-17T21:30:17.806Z,99821.22
2019-05-17T21:32:50.499Z,99819.40
2019-05-17T21:35:23.315Z,99814.60
2019-05-17T21:37:56.065Z,99808.36
2019-05-17T21:40:29.536Z,99807.44
2019-05-17T21:43:02.081Z,99810.48
2019-05-17T21:45:34.667Z,99798.32
2019-05-17T21:48:07.525Z,99801.33
2019-05-17T21:50:40.056Z,99799.20
2019-05-17T21:53:12.714Z,99802.70
2019-05-17T21:55:45.185Z,99792.89
2019-05-17T21:58:20.310Z,99790.84
2019-05-17T22:01:16.010Z,99791.91
2019-05-17T22:03:49.735Z,99789.70
2019-05-17T22:06:22.418Z,99791.54
2019-05-17T22:08:54.845Z,99786.85
2019-05-17T22:11:27.425Z,99782.16
2019-05-17T22:14:00.024Z,99782.96
2019-05-17T22:16:32.499Z,99779.14
2019-05-17T22:19:04.966Z,99768.20
2019-05-17T22:21:37.548Z,99767.75
2019-05-17T22:24:10.049Z,99764.54
2019-05-17T22:26:42.706Z,99764.64
2019-05-17T22:29:14.927Z,99769.17
2019-05-17T22:31:47.479Z,99762.66
2019-05-17T22:34:20.035Z,99760.38
2019-05-17T22:36:52.775Z,99754.89
2019-05-17T22:39:25.589Z,99753.91
2019-05-17T22:41:58.085Z,99756.84
2019-05-17T22:44:30.618Z,99759.13
2019-05-17T22:47:03.106Z,99754.18
2019-05-17T22:49:35.496Z,99752.03
2019-05-17T22:52:08.066Z,99750.35
2019-05-17T22:54:40.708Z,99754.67
2019-05-17T22:57:13.260Z,99756.25
2019-05-17T22:59:45.825Z,99758.09
2019-05-17T23:02:18.305Z,99761.70
2019-05-17T23:04:50.697Z,99763.91
2019-05-17T23:07:23.256Z,99774.29
2019-05-17T23:09:55.765Z,99782.03
2019-05-17T23:12:28.187Z,99776.02
2019-05-17T23:15:00.590Z,99777.89
2019-05-17T23:17:33.428Z,99773.67
2019-05-17T23:20:06.676Z,99783.77
2019-05-17T23:22:39.228Z,99791.45
2019-05-17T23:25:11.766Z,99787.34
2019-05-17T23:27:44.218Z,99782.63
2019-05-17T23:30:16.720Z,99789.60
2019-05-17T23:32:49.733Z,99783.09
2019-05-17T23:35:22.235Z,99781.68
2019-05-17T23:37:54.615Z,99784.77
2019-05-17T23:40:27.061Z,99790.36
2019-05-17T23:43:01.053Z,99790.84
2019-05-17T23:45:33.396Z,99791.45
2019-05-17T23:48:06.085Z,99797.56
2019-05-17T23:50:38.496Z,99800.11
2019-05-17T23:53:10.945Z,99789.19
2019-05-17T23:55:43.445Z,99787.30
2019-05-17T23:58:15.985Z,99789.45
